createdAt,value
2018-08-28T00:00:08.056Z,73.49
2018-08-28T00:01:08.123Z,73.69
2018-08-28T00:02:08.113Z,74.00
2018-08-28T00:03:08.023Z,74.00
2018-08-28T00:04:08.079Z,74.40
2018-08-28T00:05:08.047Z,73.90
2018-08-28T00:06:08.014Z,74.40
2018-08-28T00:07:08.022Z,74.30
2018-08-28T00:08:07.984Z,74.40
2018-08-28T00:09:07.954Z,74.40
2018-08-28T00:10:07.944Z,75.31
2018-08-28T00:11:07.930Z,74.20
2018-08-28T00:12:07.924Z,74.40
2018-08-28T00:13:07.982Z,75.42
2018-08-28T00:14:07.915Z,75.21
2018-08-28T00:15:07.887Z,75.42
2018-08-28T00:16:07.908Z,75.11
2018-08-28T00:17:07.979Z,75.31
2018-08-28T00:18:07.867Z,75.01
2018-08-28T00:19:07.876Z,75.04
2018-08-28T00:20:07.878Z,74.91
2018-08-28T00:21:07.822Z,75.11
2018-08-28T00:22:07.870Z,75.01
2018-08-28T00:23:07.902Z,75.01
2018-08-28T00:24:07.788Z,75.01
2018-08-28T00:25:07.886Z,74.81
2018-08-28T00:26:07.818Z,75.01
2018-08-28T00:27:07.753Z,74.81
2018-08-28T00:28:07.740Z,75.01
2018-08-28T00:29:07.731Z,75.01
2018-08-28T00:30:07.735Z,75.01
2018-08-28T00:31:07.720Z,75.42
2018-08-28T00:32:07.707Z,75.21
2018-08-28T00:33:07.689Z,75.21
2018-08-28T00:34:07.710Z,75.21
2018-08-28T00:35:07.662Z,75.52
2018-08-28T00:36:07.672Z,75.62
2018-08-28T00:37:07.673Z,75.52
2018-08-28T00:38:07.717Z,75.82
2018-08-28T00:39:07.615Z,75.21
2018-08-28T00:40:07.605Z,75.72
2018-08-28T00:41:07.593Z,75.62
2018-08-28T00:42:07.597Z,75.42
2018-08-28T00:43:07.634Z,76.26
2018-08-28T00:44:07.619Z,75.72
2018-08-28T00:45:07.547Z,75.52
2018-08-28T00:46:07.538Z,76.12
2018-08-28T00:47:07.673Z,75.82
2018-08-28T00:48:07.537Z,75.82
2018-08-28T00:49:07.563Z,76.03
2018-08-28T00:50:07.505Z,75.82
2018-08-28T00:51:15.565Z,75.72
2018-08-28T00:52:07.473Z,76.23
2018-08-28T00:53:07.737Z,75.92
2018-08-28T00:54:07.454Z,76.53
2018-08-28T00:55:07.498Z,76.06
2018-08-28T00:56:07.426Z,76.12
2018-08-28T00:57:07.422Z,76.36
2018-08-28T00:58:07.402Z,76.53
2018-08-28T00:59:07.408Z,76.03
2018-08-28T01:00:07.458Z,76.32
2018-08-28T01:01:07.391Z,76.43
2018-08-28T01:02:07.397Z,76.53
2018-08-28T01:03:07.348Z,76.32
2018-08-28T01:04:07.421Z,76.73
2018-08-28T01:05:07.393Z,76.67
2018-08-28T01:06:07.317Z,76.77
2018-08-28T01:07:07.302Z,76.73
2018-08-28T01:08:07.296Z,76.23
2018-08-28T01:09:07.276Z,76.53
2018-08-28T01:10:07.370Z,76.73
2018-08-28T01:11:07.262Z,76.56
2018-08-28T01:12:07.250Z,76.93
2018-08-28T01:13:07.232Z,77.17
2018-08-28T01:14:07.259Z,76.67
2018-08-28T01:15:07.216Z,76.73
2018-08-28T01:16:07.258Z,76.23
2018-08-28T01:17:07.315Z,76.43
2018-08-28T01:18:07.177Z,76.87
2018-08-28T01:19:07.191Z,76.83
2018-08-28T01:20:07.198Z,76.73
2018-08-28T01:21:07.174Z,77.14
2018-08-28T01:22:07.132Z,76.56
2018-08-28T01:23:07.138Z,76.63
2018-08-28T01:24:07.167Z,77.14
2018-08-28T01:25:07.137Z,76.73
2018-08-28T01:26:07.094Z,76.73
2018-08-28T01:27:07.092Z,76.46
2018-08-28T01:28:07.064Z,76.87
2018-08-28T01:29:07.099Z,76.63
2018-08-28T01:30:07.099Z,76.67
2018-08-28T01:31:07.030Z,77.17
2018-08-28T01:32:07.021Z,76.87
2018-08-28T01:33:07.016Z,77.17
2018-08-28T01:34:07.000Z,76.97
2018-08-28T01:35:07.000Z,77.07
2018-08-28T01:36:06.989Z,76.67
2018-08-28T01:37:07.059Z,77.24
2018-08-28T01:38:07.007Z,77.37
2018-08-28T01:39:06.939Z,77.17
2018-08-28T01:40:06.974Z,77.28
2018-08-28T01:41:06.951Z,77.58
2018-08-28T01:42:06.910Z,76.67
2018-08-28T01:43:06.957Z,77.37
2018-08-28T01:44:06.883Z,77.48
2018-08-28T01:45:06.870Z,77.03
2018-08-28T01:46:06.875Z,76.97
2018-08-28T01:47:06.860Z,77.14
2018-08-28T01:48:06.894Z,77.48
2018-08-28T01:49:06.837Z,76.56
2018-08-28T01:50:06.815Z,77.37
2018-08-28T01:51:06.884Z,76.87
2018-08-28T01:52:06.799Z,76.97
2018-08-28T01:53:06.794Z,77.48
2018-08-28T01:54:06.781Z,77.68
2018-08-28T01:55:06.759Z,77.17
2018-08-28T01:56:06.796Z,77.28
2018-08-28T01:57:06.787Z,77.68
2018-08-28T01:58:06.726Z,77.58
2018-08-28T01:59:06.731Z,77.37
2018-08-28T02:00:06.815Z,77.48
2018-08-28T02:01:06.771Z,77.28
2018-08-28T02:02:06.706Z,76.77
2018-08-28T02:03:06.679Z,77.48
2018-08-28T02:04:06.696Z,77.17
2018-08-28T02:05:06.660Z,77.58
2018-08-28T02:06:06.634Z,77.58
2018-08-28T02:07:06.648Z,77.37
2018-08-28T02:08:06.614Z,77.58
2018-08-28T02:09:06.627Z,77.58
2018-08-28T02:10:06.588Z,77.37
2018-08-28T02:11:06.645Z,77.58
2018-08-28T02:12:06.594Z,77.68
2018-08-28T02:13:06.611Z,77.78
2018-08-28T02:14:06.547Z,77.58
2018-08-28T02:15:06.594Z,77.17
2018-08-28T02:16:06.527Z,77.51
2018-08-28T02:17:06.528Z,77.68
2018-08-28T02:18:06.500Z,77.68
2018-08-28T02:19:06.518Z,77.68
2018-08-28T02:20:06.524Z,77.58
2018-08-28T02:21:06.469Z,77.58
2018-08-28T02:22:06.453Z,76.87
2018-08-28T02:23:06.486Z,77.28
2018-08-28T02:24:06.485Z,77.48
2018-08-28T02:25:06.426Z,77.37
2018-08-28T02:26:06.408Z,77.58
2018-08-28T02:27:06.447Z,76.83
2018-08-28T02:28:06.402Z,76.87
2018-08-28T02:29:06.463Z,77.88
2018-08-28T02:30:06.408Z,77.48
2018-08-28T02:31:06.415Z,77.17
2018-08-28T02:32:06.372Z,77.28
2018-08-28T02:33:06.335Z,77.17
2018-08-28T02:34:06.319Z,77.58
2018-08-28T02:35:06.341Z,77.37
2018-08-28T02:36:06.345Z,77.17
2018-08-28T02:37:06.299Z,77.68
2018-08-28T02:38:06.273Z,77.54
2018-08-28T02:39:06.287Z,77.48
2018-08-28T02:40:06.253Z,77.48
2018-08-28T02:41:06.281Z,77.58
2018-08-28T02:42:06.228Z,77.58
2018-08-28T02:43:06.244Z,77.37
2018-08-28T02:44:06.226Z,77.48
2018-08-28T02:45:06.200Z,77.58
2018-08-28T02:46:06.187Z,77.78
2018-08-28T02:47:06.178Z,77.48
2018-08-28T02:48:06.264Z,77.07
2018-08-28T02:49:06.150Z,77.07
2018-08-28T02:50:06.143Z,77.88
2018-08-28T02:51:06.125Z,77.58
2018-08-28T02:52:06.148Z,77.68
2018-08-28T02:53:06.134Z,78.19
2018-08-28T02:54:06.109Z,77.68
2018-08-28T02:55:06.085Z,77.88
2018-08-28T02:56:06.112Z,77.98
2018-08-28T02:57:06.087Z,78.39
2018-08-28T02:58:06.049Z,78.33
2018-08-28T02:59:06.041Z,78.28
2018-08-28T03:00:06.069Z,78.19
2018-08-28T03:01:06.016Z,77.98
2018-08-28T03:02:06.109Z,78.39
2018-08-28T03:03:06.136Z,78.28
2018-08-28T03:04:05.983Z,78.19
2018-08-28T03:05:05.988Z,78.19
2018-08-28T03:06:05.976Z,78.49
2018-08-28T03:07:05.965Z,78.39
2018-08-28T03:08:05.977Z,78.39
2018-08-28T03:09:05.967Z,78.19
2018-08-28T03:10:05.944Z,78.49
2018-08-28T03:11:05.902Z,78.39
2018-08-28T03:12:05.941Z,78.49
2018-08-28T03:13:05.907Z,78.28
2018-08-28T03:14:05.869Z,78.69
2018-08-28T03:15:05.914Z,78.39
2018-08-28T03:16:05.919Z,78.28
2018-08-28T03:17:05.886Z,78.08
2018-08-28T03:18:05.878Z,78.59
2018-08-28T03:19:05.879Z,78.39
2018-08-28T03:20:05.857Z,78.59
2018-08-28T03:21:05.790Z,78.69
2018-08-28T03:22:05.779Z,78.79
2018-08-28T03:23:05.767Z,78.49
2018-08-28T03:24:05.835Z,78.49
2018-08-28T03:25:05.767Z,78.59
2018-08-28T03:26:05.733Z,78.59
2018-08-28T03:27:05.749Z,79.00
2018-08-28T03:28:05.747Z,78.89
2018-08-28T03:29:05.783Z,78.39
2018-08-28T03:30:05.702Z,78.59
2018-08-28T03:31:20.271Z,78.49
2018-08-28T03:32:05.682Z,78.49
2018-08-28T03:33:05.678Z,78.69
2018-08-28T03:34:05.686Z,78.69
2018-08-28T03:35:05.650Z,78.69
2018-08-28T03:36:05.655Z,78.89
2018-08-28T03:37:05.612Z,79.03
2018-08-28T03:38:05.617Z,79.60
2018-08-28T03:39:05.592Z,79.00
2018-08-28T03:40:05.576Z,78.79
2018-08-28T03:41:05.587Z,78.69
2018-08-28T03:42:05.554Z,79.13
2018-08-28T03:43:05.568Z,78.89
2018-08-28T03:44:05.532Z,79.40
2018-08-28T03:45:05.589Z,80.05
2018-08-28T03:46:05.544Z,78.89
2018-08-28T03:47:05.538Z,79.30
2018-08-28T03:48:05.487Z,79.20
2018-08-28T03:49:05.479Z,78.79
2018-08-28T03:50:05.470Z,79.00
2018-08-28T03:51:05.457Z,78.79
2018-08-28T03:52:05.445Z,79.03
2018-08-28T03:53:05.464Z,78.93
2018-08-28T03:54:05.459Z,78.79
2018-08-28T03:55:05.412Z,79.13
2018-08-28T03:56:05.419Z,79.30
2018-08-28T03:57:05.427Z,78.93
2018-08-28T03:58:05.401Z,78.83
2018-08-28T03:59:05.381Z,79.00
2018-08-28T04:00:05.356Z,79.20
2018-08-28T04:01:05.344Z,78.93
2018-08-28T04:02:05.341Z,79.00
2018-08-28T04:03:05.323Z,79.00
2018-08-28T04:04:05.320Z,79.00
2018-08-28T04:05:05.313Z,79.03
2018-08-28T04:06:05.344Z,79.20
2018-08-28T04:07:05.322Z,79.24
2018-08-28T04:08:05.266Z,78.89
2018-08-28T04:09:05.252Z,78.89
2018-08-28T04:10:05.325Z,78.89
2018-08-28T04:11:05.245Z,79.24
2018-08-28T04:12:05.252Z,78.89
2018-08-28T04:13:05.206Z,78.89
2018-08-28T04:14:05.198Z,78.89
2018-08-28T04:15:05.212Z,79.30
2018-08-28T04:16:05.178Z,79.20
2018-08-28T04:17:05.252Z,79.10
2018-08-28T04:18:05.166Z,80.35
2018-08-28T04:19:05.140Z,80.15
2018-08-28T04:20:05.204Z,78.93
2018-08-28T04:21:05.116Z,79.34
2018-08-28T04:22:05.200Z,80.15
2018-08-28T04:23:05.138Z,80.05
2018-08-28T04:24:05.082Z,79.34
2018-08-28T04:25:05.071Z,79.30
2018-08-28T04:26:05.101Z,79.80
2018-08-28T04:27:05.070Z,79.50
2018-08-28T04:28:05.066Z,79.40
2018-08-28T04:29:05.069Z,79.85
2018-08-28T04:30:05.035Z,79.40
2018-08-28T04:31:12.617Z,79.64
2018-08-28T04:32:04.993Z,79.94
2018-08-28T04:33:05.029Z,79.94
2018-08-28T04:34:04.974Z,79.94
2018-08-28T04:35:04.960Z,80.15
2018-08-28T04:36:04.980Z,80.25
2018-08-28T04:37:04.958Z,80.15
2018-08-28T04:38:04.932Z,80.45
2018-08-28T04:39:04.917Z,80.35
2018-08-28T04:40:04.903Z,79.85
2018-08-28T04:41:04.935Z,79.85
2018-08-28T04:42:04.892Z,79.85
2018-08-28T04:43:04.893Z,79.94
2018-08-28T04:44:04.900Z,80.01
2018-08-28T04:45:04.856Z,80.35
2018-08-28T04:46:04.835Z,79.85
2018-08-28T04:47:04.882Z,80.55
2018-08-28T04:48:04.849Z,79.74
2018-08-28T04:49:04.820Z,79.54
2018-08-28T04:50:04.801Z,80.25
2018-08-28T04:51:04.780Z,80.96
2018-08-28T04:52:04.777Z,80.35
2018-08-28T04:53:04.777Z,80.15
2018-08-28T04:54:04.807Z,80.25
2018-08-28T04:55:04.804Z,80.45
2018-08-28T04:56:04.767Z,79.74
2018-08-28T04:57:04.851Z,80.76
2018-08-28T04:58:04.700Z,79.64
2018-08-28T04:59:04.704Z,80.25
2018-08-28T05:00:04.723Z,80.15
2018-08-28T05:01:04.684Z,79.94
2018-08-28T05:02:04.747Z,80.05
2018-08-28T05:03:04.644Z,80.05
2018-08-28T05:04:04.653Z,80.35
2018-08-28T05:05:04.658Z,79.94
2018-08-28T05:06:04.635Z,79.94
2018-08-28T05:07:04.634Z,80.55
2018-08-28T05:08:04.622Z,79.94
2018-08-28T05:09:04.579Z,79.94
2018-08-28T05:10:04.580Z,80.76
2018-08-28T05:11:04.557Z,80.65
2018-08-28T05:12:04.590Z,80.35
2018-08-28T05:13:04.540Z,80.55
2018-08-28T05:14:04.678Z,80.55
2018-08-28T05:15:04.547Z,79.94
2018-08-28T05:16:04.526Z,80.15
2018-08-28T05:17:04.533Z,80.35
2018-08-28T05:18:04.492Z,79.74
2018-08-28T05:19:04.467Z,79.91
2018-08-28T05:20:04.452Z,80.72
2018-08-28T05:21:04.443Z,80.05
2018-08-28T05:22:04.455Z,79.80
2018-08-28T05:23:04.432Z,79.74
2018-08-28T05:24:04.420Z,79.80
2018-08-28T05:25:04.440Z,80.01
2018-08-28T05:26:04.413Z,80.05
2018-08-28T05:27:04.381Z,80.01
2018-08-28T05:28:04.496Z,79.60
2018-08-28T05:29:04.599Z,79.91
2018-08-28T05:30:04.367Z,79.80
2018-08-28T05:31:04.330Z,80.11
2018-08-28T05:32:04.324Z,79.30
2018-08-28T05:33:04.361Z,79.50
2018-08-28T05:34:04.383Z,79.60
2018-08-28T05:35:04.286Z,79.40
2018-08-28T05:36:04.290Z,79.60
2018-08-28T05:37:04.290Z,79.40
2018-08-28T05:38:04.298Z,79.60
2018-08-28T05:39:04.280Z,79.36
2018-08-28T05:40:04.229Z,79.20
2018-08-28T05:41:04.281Z,79.40
2018-08-28T05:42:04.266Z,79.50
2018-08-28T05:43:04.195Z,80.01
2018-08-28T05:44:04.185Z,79.60
2018-08-28T05:45:04.186Z,79.30
2018-08-28T05:46:04.201Z,80.21
2018-08-28T05:47:04.161Z,80.21
2018-08-28T05:48:04.163Z,80.52
2018-08-28T05:49:04.136Z,80.41
2018-08-28T05:50:04.116Z,79.91
2018-08-28T05:51:04.149Z,80.31
2018-08-28T05:52:04.102Z,79.91
2018-08-28T05:53:04.090Z,79.71
2018-08-28T05:54:04.115Z,80.11
2018-08-28T05:55:04.106Z,79.60
2018-08-28T05:56:04.096Z,79.80
2018-08-28T05:57:04.056Z,80.31
2018-08-28T05:58:04.026Z,80.52
2018-08-28T05:59:04.035Z,80.31
2018-08-28T06:00:04.070Z,79.46
2018-08-28T06:01:04.029Z,79.77
2018-08-28T06:02:03.989Z,79.20
2018-08-28T06:03:04.064Z,79.91
2018-08-28T06:04:03.961Z,80.11
2018-08-28T06:05:03.968Z,80.07
2018-08-28T06:06:03.969Z,80.52
2018-08-28T06:07:03.924Z,80.21
2018-08-28T06:08:03.930Z,80.11
2018-08-28T06:09:03.925Z,80.31
2018-08-28T06:10:03.894Z,80.07
2018-08-28T06:11:03.893Z,80.07
2018-08-28T06:12:04.046Z,80.31
2018-08-28T06:13:03.974Z,80.27
2018-08-28T06:14:03.885Z,79.46
2018-08-28T06:15:03.837Z,80.38
2018-08-28T06:16:03.853Z,79.67
2018-08-28T06:17:03.908Z,79.97
2018-08-28T06:18:03.812Z,79.87
2018-08-28T06:19:03.789Z,79.97
2018-08-28T06:20:03.775Z,79.77
2018-08-28T06:21:03.769Z,79.16
2018-08-28T06:22:03.763Z,79.87
2018-08-28T06:23:03.928Z,79.97
2018-08-28T06:24:03.780Z,79.67
2018-08-28T06:25:03.745Z,79.43
2018-08-28T06:26:03.713Z,79.22
2018-08-28T06:27:03.772Z,78.96
2018-08-28T06:28:03.693Z,78.82
2018-08-28T06:29:03.756Z,79.02
2018-08-28T06:30:03.714Z,79.22
2018-08-28T06:31:03.689Z,79.33
2018-08-28T06:32:03.661Z,80.34
2018-08-28T06:33:03.632Z,79.26
2018-08-28T06:34:03.730Z,79.06
2018-08-28T06:35:03.742Z,79.26
2018-08-28T06:36:03.600Z,79.36
2018-08-28T06:37:03.586Z,79.77
2018-08-28T06:38:03.582Z,79.26
2018-08-28T06:39:03.603Z,79.83
2018-08-28T06:40:03.555Z,79.46
2018-08-28T06:41:03.623Z,79.43
2018-08-28T06:42:03.540Z,78.92
2018-08-28T06:43:03.531Z,80.24
2018-08-28T06:44:03.817Z,79.93
2018-08-28T06:45:03.496Z,79.53
2018-08-28T06:46:03.522Z,79.22
2018-08-28T06:47:03.556Z,78.72
2018-08-28T06:48:03.489Z,79.33
2018-08-28T06:49:03.452Z,79.19
2018-08-28T06:50:03.499Z,79.33
2018-08-28T06:51:03.497Z,80.13
2018-08-28T06:52:03.423Z,79.13
2018-08-28T06:53:03.408Z,78.68
2018-08-28T06:54:03.449Z,79.33
2018-08-28T06:55:03.397Z,78.72
2018-08-28T06:56:03.406Z,79.08
2018-08-28T06:57:03.364Z,79.33
2018-08-28T06:58:03.403Z,79.13
2018-08-28T06:59:03.374Z,78.92
2018-08-28T07:00:03.344Z,79.02
2018-08-28T07:01:03.324Z,79.33
2018-08-28T07:02:03.308Z,79.63
2018-08-28T07:03:03.322Z,78.88
2018-08-28T07:04:03.368Z,78.88
2018-08-28T07:05:03.283Z,78.78
2018-08-28T07:06:03.290Z,79.08
2018-08-28T07:07:03.258Z,78.78
2018-08-28T07:08:03.307Z,79.29
2018-08-28T07:09:03.273Z,79.19
2018-08-28T07:10:03.265Z,78.88
2018-08-28T07:11:03.201Z,78.78
2018-08-28T07:12:03.190Z,79.19
2018-08-28T07:13:03.222Z,79.08
2018-08-28T07:14:03.223Z,78.68
2018-08-28T07:15:03.159Z,79.39
2018-08-28T07:16:03.169Z,78.78
2018-08-28T07:17:03.136Z,78.99
2018-08-28T07:18:03.161Z,79.08
2018-08-28T07:19:03.113Z,79.08
2018-08-28T07:20:03.179Z,79.19
2018-08-28T07:21:03.108Z,79.29
2018-08-28T07:22:03.080Z,78.78
2018-08-28T07:23:03.072Z,78.99
2018-08-28T07:24:03.057Z,79.08
2018-08-28T07:25:03.043Z,79.08
2018-08-28T07:26:03.145Z,79.08
2018-08-28T07:27:03.041Z,78.58
2018-08-28T07:28:03.008Z,78.44
2018-08-28T07:29:02.999Z,78.64
2018-08-28T07:30:03.007Z,78.48
2018-08-28T07:31:02.984Z,78.95
2018-08-28T07:32:02.988Z,78.44
2018-08-28T07:33:02.986Z,78.75
2018-08-28T07:34:02.945Z,78.24
2018-08-28T07:35:02.976Z,78.34
2018-08-28T07:36:02.957Z,78.55
2018-08-28T07:37:02.924Z,78.04
2018-08-28T07:38:02.954Z,78.41
2018-08-28T07:39:02.893Z,78.00
2018-08-28T07:40:02.900Z,77.80
2018-08-28T07:41:02.882Z,78.91
2018-08-28T07:42:02.878Z,78.00
2018-08-28T07:43:02.853Z,78.20
2018-08-28T07:44:02.845Z,78.10
2018-08-28T07:45:02.847Z,78.20
2018-08-28T07:46:02.810Z,77.60
2018-08-28T07:47:02.796Z,77.80
2018-08-28T07:48:02.803Z,77.09
2018-08-28T07:49:02.799Z,78.00
2018-08-28T07:50:02.775Z,77.60
2018-08-28T07:51:02.750Z,78.61
2018-08-28T07:52:02.767Z,78.30
2018-08-28T07:53:02.761Z,77.36
2018-08-28T07:54:02.770Z,77.26
2018-08-28T07:55:02.704Z,77.09
2018-08-28T07:56:02.708Z,77.15
2018-08-28T07:57:02.681Z,77.26
2018-08-28T07:58:02.675Z,76.95
2018-08-28T07:59:02.719Z,77.56
2018-08-28T08:00:02.659Z,77.36
2018-08-28T08:01:02.641Z,76.75
2018-08-28T08:02:02.639Z,76.86
2018-08-28T08:03:02.615Z,77.36
2018-08-28T08:04:02.604Z,76.25
2018-08-28T08:05:02.608Z,76.04
2018-08-28T08:06:02.601Z,77.36
2018-08-28T08:07:02.584Z,76.51
2018-08-28T08:08:02.566Z,76.42
2018-08-28T08:09:02.552Z,76.92
2018-08-28T08:10:02.549Z,76.31
2018-08-28T08:11:02.527Z,76.31
2018-08-28T08:12:02.520Z,76.92
2018-08-28T08:13:02.524Z,76.01
2018-08-28T08:14:02.501Z,76.62
2018-08-28T08:15:02.487Z,76.11
2018-08-28T08:16:02.508Z,76.88
2018-08-28T08:17:02.465Z,76.38
2018-08-28T08:18:02.534Z,76.07
2018-08-28T08:19:02.452Z,74.96
2018-08-28T08:20:02.425Z,75.27
2018-08-28T08:21:02.452Z,74.96
2018-08-28T08:22:02.421Z,74.63
2018-08-28T08:23:02.389Z,75.23
2018-08-28T08:24:02.382Z,74.73
2018-08-28T08:25:02.384Z,75.34
2018-08-28T08:26:02.370Z,74.93
2018-08-28T08:27:02.393Z,76.24
2018-08-28T08:28:02.412Z,74.59
2018-08-28T08:29:02.359Z,75.03
2018-08-28T08:30:02.333Z,75.03
2018-08-28T08:31:02.308Z,73.88
2018-08-28T08:32:02.309Z,73.58
2018-08-28T08:33:02.280Z,73.68
2018-08-28T08:34:02.282Z,74.49
2018-08-28T08:35:02.256Z,73.99
2018-08-28T08:36:02.276Z,74.69
2018-08-28T08:37:02.255Z,74.66
2018-08-28T08:38:02.220Z,73.68
2018-08-28T08:39:02.207Z,73.75
2018-08-28T08:40:02.197Z,73.14
2018-08-28T08:41:02.188Z,74.59
2018-08-28T08:42:02.263Z,74.05
2018-08-28T08:43:02.181Z,74.76
2018-08-28T08:44:02.177Z,74.96
2018-08-28T08:45:02.163Z,74.55
2018-08-28T08:46:02.132Z,73.14
2018-08-28T08:47:02.118Z,73.45
2018-08-28T08:48:02.111Z,73.45
2018-08-28T08:49:02.113Z,73.65
2018-08-28T08:50:02.114Z,73.21
2018-08-28T08:51:02.078Z,72.71
2018-08-28T08:52:02.069Z,73.32
2018-08-28T08:53:02.050Z,72.71
2018-08-28T08:54:02.039Z,72.31
2018-08-28T08:55:02.199Z,71.40
2018-08-28T08:56:02.022Z,71.91
2018-08-28T08:57:02.008Z,73.01
2018-08-28T08:58:01.998Z,72.11
2018-08-28T08:59:01.986Z,71.40
2018-08-28T09:00:01.975Z,72.11
2018-08-28T09:01:01.994Z,72.31
2018-08-28T09:02:01.958Z,72.91
2018-08-28T09:03:01.950Z,73.11
2018-08-28T09:04:01.928Z,72.51
2018-08-28T09:05:01.930Z,73.01
2018-08-28T09:06:01.980Z,72.97
2018-08-28T09:07:01.895Z,72.67
2018-08-28T09:08:01.885Z,72.37
2018-08-28T09:09:01.872Z,73.28
2018-08-28T09:10:01.875Z,71.47
2018-08-28T09:11:01.850Z,70.56
2018-08-28T09:12:01.852Z,71.56
2018-08-28T09:13:01.833Z,72.44
2018-08-28T09:14:01.848Z,69.62
2018-08-28T09:15:01.836Z,70.26
2018-08-28T09:16:01.801Z,71.16
2018-08-28T09:17:01.780Z,70.36
2018-08-28T09:18:01.783Z,71.23
2018-08-28T09:19:01.762Z,71.03
2018-08-28T09:20:01.768Z,72.07
2018-08-28T09:21:01.745Z,70.56
2018-08-28T09:22:01.741Z,70.63
2018-08-28T09:23:01.745Z,71.26
2018-08-28T09:24:01.727Z,70.46
2018-08-28T09:25:01.695Z,71.06
2018-08-28T09:26:01.681Z,71.43
2018-08-28T09:27:01.694Z,71.03
2018-08-28T09:28:01.663Z,70.73
2018-08-28T09:29:01.683Z,72.34
2018-08-28T09:30:01.663Z,70.93
2018-08-28T09:31:01.625Z,71.83
2018-08-28T09:32:01.617Z,71.94
2018-08-28T09:33:01.613Z,71.94
2018-08-28T09:34:01.597Z,72.03
2018-08-28T09:35:01.584Z,71.83
2018-08-28T09:36:01.592Z,71.87
2018-08-28T09:37:01.558Z,71.73
2018-08-28T09:38:01.578Z,71.03
2018-08-28T09:39:01.537Z,71.73
2018-08-28T09:40:01.529Z,71.83
2018-08-28T09:41:01.516Z,71.03
2018-08-28T09:42:01.501Z,71.03
2018-08-28T09:43:01.490Z,71.09
2018-08-28T09:44:01.523Z,72.84
2018-08-28T09:45:01.510Z,71.60
2018-08-28T09:46:01.455Z,72.10
2018-08-28T09:47:01.450Z,71.90
2018-08-28T09:48:01.515Z,72.61
2018-08-28T09:49:01.424Z,71.00
2018-08-28T09:50:01.476Z,70.70
2018-08-28T09:51:01.465Z,72.50
2018-08-28T09:52:01.389Z,71.40
2018-08-28T09:53:01.378Z,71.60
2018-08-28T09:54:01.369Z,70.39
2018-08-28T09:55:01.360Z,71.70
2018-08-28T09:56:01.387Z,71.60
2018-08-28T09:57:01.335Z,71.20
2018-08-28T09:58:01.332Z,71.70
2018-08-28T09:59:01.314Z,71.87
2018-08-28T10:00:01.305Z,71.67
2018-08-28T10:01:01.290Z,70.76
2018-08-28T10:02:01.316Z,70.06
2018-08-28T10:03:01.268Z,70.50
2018-08-28T10:04:01.257Z,71.00
2018-08-28T10:05:01.246Z,70.70
2018-08-28T10:06:01.237Z,71.40
2018-08-28T10:07:01.222Z,70.09
2018-08-28T10:08:01.253Z,70.66
2018-08-28T10:09:01.203Z,72.17
2018-08-28T10:10:01.188Z,70.06
2018-08-28T10:11:01.261Z,69.79
2018-08-28T10:12:01.168Z,70.76
2018-08-28T10:13:01.156Z,70.06
2018-08-28T10:14:01.173Z,69.56
2018-08-28T10:15:01.134Z,70.26
2018-08-28T10:16:01.140Z,70.46
2018-08-28T10:17:01.124Z,71.16
2018-08-28T10:18:01.097Z,70.36
2018-08-28T10:19:01.090Z,70.09
2018-08-28T10:20:01.093Z,70.96
2018-08-28T10:21:01.095Z,71.77
2018-08-28T10:22:01.056Z,71.77
2018-08-28T10:23:01.127Z,70.26
2018-08-28T10:24:01.031Z,70.36
2018-08-28T10:25:01.023Z,70.56
2018-08-28T10:26:01.028Z,70.86
2018-08-28T10:27:01.023Z,70.06
2018-08-28T10:28:00.991Z,70.06
2018-08-28T10:29:00.982Z,70.26
2018-08-28T10:30:01.062Z,70.36
2018-08-28T10:31:00.972Z,70.56
2018-08-28T10:32:00.958Z,70.26
2018-08-28T10:33:00.965Z,70.56
2018-08-28T10:34:00.920Z,69.96
2018-08-28T10:35:00.910Z,70.26
2018-08-28T10:36:00.898Z,70.46
2018-08-28T10:37:00.891Z,70.46
2018-08-28T10:38:00.938Z,70.46
2018-08-28T10:39:00.869Z,69.65
2018-08-28T10:40:00.876Z,69.96
2018-08-28T10:41:00.884Z,69.56
2018-08-28T10:42:00.830Z,68.15
2018-08-28T10:43:00.838Z,67.94
2018-08-28T10:44:00.827Z,68.02
2018-08-28T10:45:00.804Z,66.24
2018-08-28T10:46:00.860Z,66.14
2018-08-28T10:47:00.854Z,68.12
2018-08-28T10:48:00.763Z,65.10
2018-08-28T10:49:00.770Z,66.00
2018-08-28T10:50:00.754Z,66.71
2018-08-28T10:51:00.733Z,65.41
2018-08-28T10:52:00.752Z,66.31
2018-08-28T10:53:00.815Z,65.77
2018-08-28T10:54:00.698Z,64.97
2018-08-28T10:55:00.700Z,64.57
2018-08-28T10:56:00.678Z,64.47
2018-08-28T10:57:00.665Z,64.84
2018-08-28T10:58:00.678Z,63.76
2018-08-28T10:59:00.650Z,64.04
2018-08-28T11:00:00.632Z,63.73
2018-08-28T11:01:00.633Z,64.14
2018-08-28T11:02:00.608Z,63.84
2018-08-28T11:03:00.598Z,63.84
2018-08-28T11:04:00.589Z,61.10
2018-08-28T11:05:00.597Z,62.57
2018-08-28T11:06:00.567Z,59.77
2018-08-28T11:07:00.569Z,60.57
2018-08-28T11:08:00.544Z,61.71
2018-08-28T11:09:00.530Z,60.68
2018-08-28T11:10:00.518Z,59.95
2018-08-28T11:11:00.549Z,59.22
2018-08-28T11:12:00.499Z,59.69
2018-08-28T11:13:00.504Z,56.16
2018-08-28T11:14:00.480Z,56.87
2018-08-28T11:15:00.465Z,54.84
2018-08-28T11:16:00.475Z,56.21
2018-08-28T11:17:00.448Z,57.31
2018-08-28T11:18:00.464Z,56.77
2018-08-28T11:19:00.440Z,54.97
2018-08-28T11:20:00.419Z,56.57
2018-08-28T11:21:00.396Z,56.34
2018-08-28T11:22:00.386Z,55.77
2018-08-28T11:23:00.528Z,53.17
2018-08-28T11:24:00.361Z,54.29
2018-08-28T11:25:00.372Z,53.19
2018-08-28T11:26:00.341Z,55.12
2018-08-28T11:27:00.332Z,53.82
2018-08-28T11:28:00.353Z,56.52
2018-08-28T11:29:00.357Z,53.94
2018-08-28T11:30:00.352Z,54.97
2018-08-28T11:31:00.302Z,54.47
2018-08-28T11:32:00.275Z,55.60
2018-08-28T11:33:00.280Z,56.70
2018-08-28T11:34:00.262Z,54.87
2018-08-28T11:35:00.241Z,55.98
2018-08-28T11:36:00.244Z,55.47
2018-08-28T11:37:00.239Z,55.20
2018-08-28T11:38:00.231Z,56.37
2018-08-28T11:39:00.194Z,54.80
2018-08-28T11:40:00.183Z,54.37
2018-08-28T11:41:00.180Z,55.20
2018-08-28T11:42:00.157Z,53.69
2018-08-28T11:43:00.164Z,53.92
2018-08-28T11:44:00.136Z,55.10
2018-08-28T11:45:00.124Z,54.43
2018-08-28T11:46:00.141Z,55.63
2018-08-28T11:47:00.107Z,54.50
2018-08-28T11:48:00.090Z,54.87
2018-08-28T11:49:00.098Z,52.72
2018-08-28T11:50:00.073Z,53.02
2018-08-28T11:51:00.054Z,53.12
2018-08-28T11:52:00.096Z,52.89
2018-08-28T11:53:00.144Z,53.42
2018-08-28T11:54:00.037Z,53.34
2018-08-28T11:55:00.030Z,53.55
2018-08-28T11:56:00.010Z,53.32
2018-08-28T11:57:00.036Z,55.42
2018-08-28T11:57:59.980Z,52.89
2018-08-28T11:58:59.982Z,52.09
2018-08-28T11:59:59.967Z,52.17
2018-08-28T12:00:59.958Z,54.57
2018-08-28T12:01:59.954Z,53.42
2018-08-28T12:02:59.937Z,50.82
2018-08-28T12:03:59.914Z,51.89
2018-08-28T12:04:59.992Z,48.50
2018-08-28T12:05:59.911Z,50.90
2018-08-28T12:06:59.942Z,49.08
2018-08-28T12:07:59.877Z,50.27
2018-08-28T12:08:59.876Z,49.18
2018-08-28T12:09:59.874Z,47.48
2018-08-28T12:10:59.833Z,49.38
2018-08-28T12:11:59.820Z,49.57
2018-08-28T12:12:59.868Z,47.58
2018-08-28T12:13:59.800Z,46.78
2018-08-28T12:14:59.808Z,46.38
2018-08-28T12:15:59.774Z,46.78
2018-08-28T12:16:59.765Z,47.66
2018-08-28T12:17:59.753Z,48.55
2018-08-28T12:18:59.759Z,47.45
2018-08-28T12:19:59.765Z,44.87
2018-08-28T12:20:59.889Z,45.96
2018-08-28T12:21:59.708Z,45.04
2018-08-28T12:22:59.699Z,44.94
2018-08-28T12:23:59.684Z,44.17
2018-08-28T12:24:59.694Z,45.56
2018-08-28T12:25:59.665Z,45.66
2018-08-28T12:26:59.663Z,44.74
2018-08-28T12:27:59.670Z,44.67
2018-08-28T12:28:59.632Z,45.36
2018-08-28T12:29:59.618Z,46.36
2018-08-28T12:30:59.624Z,47.24
2018-08-28T12:31:59.597Z,46.24
2018-08-28T12:32:59.585Z,45.84
2018-08-28T12:33:59.591Z,44.54
2018-08-28T12:34:59.565Z,44.65
2018-08-28T12:35:59.553Z,45.84
2018-08-28T12:36:59.578Z,44.87
2018-08-28T12:37:59.528Z,44.29
2018-08-28T12:38:59.517Z,45.90
2018-08-28T12:39:59.539Z,46.91
2018-08-28T12:40:59.494Z,48.90
2018-08-28T12:41:59.485Z,48.80
2018-08-28T12:42:59.480Z,46.92
2018-08-28T12:43:59.516Z,47.50
2018-08-28T12:44:59.449Z,47.60
2018-08-28T12:45:59.468Z,47.00
2018-08-28T12:46:59.463Z,47.20
2018-08-28T12:47:59.430Z,47.71
2018-08-28T12:48:59.404Z,48.10
2018-08-28T12:49:59.394Z,48.72
2018-08-28T12:50:59.384Z,49.32
2018-08-28T12:51:59.418Z,49.72